Terminal Aerodrome Forecast
Issued by NWS

Home | Current Version | Previous Version | Text Only | Print | Product List | Glossary On
Versions: 1 2 3 4 5 6 7 8 9 10 11 12 13 14 15 16 17 18 19 20 21 22 23 24 25 26 27 28
639
FTUS44 KFWD 090901 AAA
TAFAFW
TAF AMD
KAFW 090901Z 0909/1006 36005KT P6SM BKN070
     FM091500 06006KT P6SM BKN060 BKN250
     FM091800 13006KT P6SM BKN080 BKN250
     FM092100 13008KT P6SM SCT250=

USA.gov is the U.S. government's official web portal to all federal, state and local government web resources and services.